createdAt,value
2016-07-04T00:00:17.491Z,15.95
2016-07-04T00:01:17.476Z,16.05
2016-07-04T00:02:17.439Z,16
2016-07-04T00:03:17.427Z,15.97
2016-07-04T00:04:17.415Z,15.98
2016-07-04T00:05:17.375Z,16.02
2016-07-04T00:06:17.360Z,16
2016-07-04T00:07:17.340Z,15.97
2016-07-04T00:08:17.321Z,15.98
2016-07-04T00:09:17.302Z,15.91
2016-07-04T00:10:17.278Z,16.02
2016-07-04T00:11:17.255Z,15.94
2016-07-04T00:12:17.243Z,15.94
2016-07-04T00:13:17.212Z,15.97
2016-07-04T00:14:17.205Z,15.92
2016-07-04T00:15:17.172Z,16
2016-07-04T00:16:17.152Z,15.97
2016-07-04T00:17:17.131Z,16.01
2016-07-04T00:18:17.107Z,16.01
2016-07-04T00:19:17.088Z,16
2016-07-04T00:20:17.058Z,16.01
2016-07-04T00:21:17.044Z,16.09
2016-07-04T00:22:17.012Z,16.04
2016-07-04T00:23:16.997Z,16.04
2016-07-04T00:24:16.991Z,16.05
2016-07-04T00:25:16.957Z,16.13
2016-07-04T00:26:16.929Z,16.08
2016-07-04T00:27:16.914Z,16.09
2016-07-04T00:28:16.889Z,16.09
2016-07-04T00:29:16.871Z,16.1
2016-07-04T00:30:16.848Z,16.09
2016-07-04T00:31:16.830Z,16.1
2016-07-04T00:32:16.805Z,16.09
2016-07-04T00:33:16.790Z,16.1
2016-07-04T00:34:16.761Z,16.12
2016-07-04T00:35:16.744Z,16.24
2016-07-04T00:36:16.718Z,16.24
2016-07-04T00:37:16.700Z,16.21
2016-07-04T00:38:16.677Z,16.2
2016-07-04T00:39:16.662Z,16.16
2016-07-04T00:40:16.638Z,16.26
2016-07-04T00:41:16.623Z,16.16
2016-07-04T00:42:16.592Z,16.15
2016-07-04T00:43:16.575Z,16.21
2016-07-04T00:44:16.555Z,16.17
2016-07-04T00:45:16.530Z,16.28
2016-07-04T00:46:16.512Z,16.29
2016-07-04T00:47:16.496Z,16.17
2016-07-04T00:48:16.466Z,16.32
2016-07-04T00:49:16.448Z,16.21
2016-07-04T00:50:16.426Z,16.17
2016-07-04T00:51:16.403Z,16.28
2016-07-04T00:52:16.383Z,16.29
2016-07-04T00:53:16.364Z,16.26
2016-07-04T00:54:16.346Z,16.16
2016-07-04T00:55:16.324Z,16.28
2016-07-04T00:56:16.302Z,16.21
2016-07-04T00:57:16.283Z,16.23
2016-07-04T00:58:16.271Z,16.1
2016-07-04T00:59:16.241Z,16.1
2016-07-04T01:00:16.215Z,16.12
2016-07-04T01:01:16.193Z,16.15
2016-07-04T01:02:16.179Z,16.02
2016-07-04T01:03:16.155Z,16.12
2016-07-04T01:04:16.136Z,16.09
2016-07-04T01:05:16.116Z,16.05
2016-07-04T01:06:16.847Z,16.05
2016-07-04T01:07:16.189Z,16.02
2016-07-04T01:08:16.288Z,16.13
2016-07-04T01:09:16.032Z,16.09
2016-07-04T01:10:16.011Z,16.08
2016-07-04T01:11:16.102Z,16.02
2016-07-04T01:12:15.963Z,16.08
2016-07-04T01:13:15.949Z,16.1
2016-07-04T01:14:15.923Z,16.05
2016-07-04T01:15:15.906Z,16.05
2016-07-04T01:16:15.877Z,16.05
2016-07-04T01:17:15.860Z,16.04
2016-07-04T01:18:15.834Z,16.12
2016-07-04T01:19:15.815Z,16.09
2016-07-04T01:20:16.400Z,16.1
2016-07-04T01:21:15.775Z,16.05
2016-07-04T01:22:15.750Z,16.12
2016-07-04T01:23:15.728Z,16.04
2016-07-04T01:24:15.709Z,16
2016-07-04T01:25:15.688Z,15.98
2016-07-04T01:26:15.667Z,16.01
2016-07-04T01:27:15.648Z,16.01
2016-07-04T01:28:15.627Z,15.97
2016-07-04T01:29:15.604Z,16.01
2016-07-04T01:30:15.584Z,15.94
2016-07-04T01:31:15.564Z,15.95
2016-07-04T01:32:15.541Z,15.95
2016-07-04T01:33:15.520Z,16.01
2016-07-04T01:34:15.503Z,15.97
2016-07-04T01:35:15.475Z,16.01
2016-07-04T01:36:15.455Z,15.9
2016-07-04T01:37:15.432Z,15.95
2016-07-04T01:38:15.409Z,15.84
2016-07-04T01:39:15.392Z,15.84
2016-07-04T01:40:15.363Z,15.84
2016-07-04T01:41:15.346Z,15.84
2016-07-04T01:42:15.318Z,15.84
2016-07-04T01:43:15.302Z,15.75
2016-07-04T01:44:15.284Z,15.82
2016-07-04T01:45:15.260Z,15.8
2016-07-04T01:46:15.242Z,15.8
2016-07-04T01:47:15.214Z,15.82
2016-07-04T01:48:15.196Z,15.75
2016-07-04T01:49:15.171Z,15.7
2016-07-04T01:50:15.144Z,15.76
2016-07-04T01:51:15.134Z,15.75
2016-07-04T01:52:15.112Z,15.68
2016-07-04T01:53:15.089Z,15.58
2016-07-04T01:54:15.061Z,15.62
2016-07-04T01:55:15.035Z,15.57
2016-07-04T01:56:15.025Z,15.59
2016-07-04T01:57:14.994Z,15.54
2016-07-04T01:58:14.974Z,15.55
2016-07-04T01:59:14.948Z,15.52
2016-07-04T02:00:15.158Z,15.44
2016-07-04T02:01:14.904Z,15.49
2016-07-04T02:02:14.884Z,15.4
2016-07-04T02:03:14.860Z,15.4
2016-07-04T02:04:14.840Z,15.4
2016-07-04T02:05:14.822Z,15.43
2016-07-04T02:06:14.803Z,15.35
2016-07-04T02:07:14.776Z,15.31
2016-07-04T02:08:14.756Z,15.29
2016-07-04T02:09:14.781Z,15.35
2016-07-04T02:10:14.825Z,15.31
2016-07-04T02:11:14.797Z,15.29
2016-07-04T02:12:14.728Z,15.29
2016-07-04T02:13:14.785Z,15.22
2016-07-04T02:14:14.777Z,15.22
2016-07-04T02:15:14.757Z,15.24
2016-07-04T02:16:14.686Z,15.15
2016-07-04T02:17:14.649Z,15.22
2016-07-04T02:18:14.538Z,15.19
2016-07-04T02:19:14.517Z,15.19
2016-07-04T02:20:14.504Z,15.11
2016-07-04T02:21:14.480Z,15.18
2016-07-04T02:22:14.451Z,15.11
2016-07-04T02:23:14.425Z,15.11
2016-07-04T02:24:14.420Z,15.14
2016-07-04T02:25:14.385Z,15.11
2016-07-04T02:26:14.363Z,15.06
2016-07-04T02:27:14.343Z,15.14
2016-07-04T02:28:14.318Z,15.09
2016-07-04T02:29:14.297Z,15.1
2016-07-04T02:30:14.274Z,15.17
2016-07-04T02:31:14.252Z,15.07
2016-07-04T02:32:14.234Z,15.07
2016-07-04T02:33:14.203Z,15.09
2016-07-04T02:34:14.187Z,15.07
2016-07-04T02:35:14.162Z,15.06
2016-07-04T02:36:14.147Z,15.07
2016-07-04T02:37:14.114Z,15.09
2016-07-04T02:38:14.103Z,15.07
2016-07-04T02:39:14.071Z,15
2016-07-04T02:40:14.050Z,15.11
2016-07-04T02:41:14.028Z,15.14
2016-07-04T02:42:14.002Z,15.09
2016-07-04T02:43:13.978Z,15.06
2016-07-04T02:44:13.967Z,15.14
2016-07-04T02:45:13.941Z,15.09
2016-07-04T02:46:13.912Z,15.1
2016-07-04T02:47:13.895Z,15.07
2016-07-04T02:48:13.866Z,15.09
2016-07-04T02:49:13.850Z,15.03
2016-07-04T02:50:13.826Z,15.14
2016-07-04T02:51:13.801Z,15.09
2016-07-04T02:52:13.784Z,15.1
2016-07-04T02:53:13.765Z,14.97
2016-07-04T02:54:13.748Z,15.14
2016-07-04T02:55:13.713Z,15.09
2016-07-04T02:56:13.692Z,15.03
2016-07-04T02:57:13.679Z,15.17
2016-07-04T02:58:13.659Z,15.06
2016-07-04T02:59:13.630Z,15.03
2016-07-04T03:00:13.607Z,15.06
2016-07-04T03:01:14.186Z,14.92
2016-07-04T03:02:13.560Z,15.09
2016-07-04T03:03:13.532Z,15.07
2016-07-04T03:04:13.517Z,15.09
2016-07-04T03:05:13.503Z,14.99
2016-07-04T03:06:13.478Z,14.97
2016-07-04T03:07:14.051Z,15
2016-07-04T03:08:14.039Z,14.97
2016-07-04T03:09:13.405Z,14.94
2016-07-04T03:10:13.390Z,14.94
2016-07-04T03:11:13.364Z,14.88
2016-07-04T03:12:13.341Z,14.94
2016-07-04T03:13:13.318Z,14.96
2016-07-04T03:14:13.892Z,14.88
2016-07-04T03:15:13.285Z,14.85
2016-07-04T03:16:13.243Z,14.92
2016-07-04T03:17:13.215Z,14.91
2016-07-04T03:18:13.199Z,14.82
2016-07-04T03:19:13.172Z,14.92
2016-07-04T03:20:13.152Z,14.89
2016-07-04T03:21:13.178Z,14.94
2016-07-04T03:22:13.109Z,14.94
2016-07-04T03:23:13.084Z,14.89
2016-07-04T03:24:13.070Z,14.91
2016-07-04T03:25:13.039Z,14.92
2016-07-04T03:26:13.025Z,14.85
2016-07-04T03:27:13.006Z,14.86
2016-07-04T03:28:12.979Z,14.86
2016-07-04T03:29:12.955Z,14.91
2016-07-04T03:30:12.937Z,14.86
2016-07-04T03:31:12.913Z,14.82
2016-07-04T03:32:12.883Z,14.82
2016-07-04T03:33:12.867Z,14.86
2016-07-04T03:34:12.846Z,14.79
2016-07-04T03:35:12.823Z,14.79
2016-07-04T03:36:12.796Z,14.78
2016-07-04T03:37:12.775Z,14.81
2016-07-04T03:38:12.754Z,14.77
2016-07-04T03:39:12.738Z,14.81
2016-07-04T03:40:12.710Z,14.79
2016-07-04T03:41:12.692Z,14.84
2016-07-04T03:42:12.662Z,14.81
2016-07-04T03:43:12.635Z,14.85
2016-07-04T03:44:12.615Z,14.85
2016-07-04T03:45:12.592Z,14.84
2016-07-04T03:46:12.569Z,14.86
2016-07-04T03:47:12.552Z,14.73
2016-07-04T03:48:12.528Z,14.84
2016-07-04T03:49:12.504Z,14.88
2016-07-04T03:50:12.488Z,14.88
2016-07-04T03:51:12.463Z,14.82
2016-07-04T03:52:12.439Z,14.81
2016-07-04T03:53:12.418Z,14.85
2016-07-04T03:54:12.397Z,14.84
2016-07-04T03:55:12.372Z,14.69
2016-07-04T03:56:12.347Z,14.78
2016-07-04T03:57:12.328Z,14.86
2016-07-04T03:58:12.308Z,14.81
2016-07-04T03:59:12.287Z,14.78
2016-07-04T04:00:12.266Z,14.85
2016-07-04T04:01:12.238Z,14.82
2016-07-04T04:02:12.215Z,14.79
2016-07-04T04:03:12.189Z,14.89
2016-07-04T04:04:12.172Z,14.86
2016-07-04T04:05:12.151Z,14.84
2016-07-04T04:06:12.131Z,14.86
2016-07-04T04:07:12.106Z,14.77
2016-07-04T04:08:12.083Z,14.84
2016-07-04T04:09:12.064Z,14.85
2016-07-04T04:10:12.037Z,14.86
2016-07-04T04:11:12.014Z,14.82
2016-07-04T04:12:11.992Z,14.84
2016-07-04T04:13:11.973Z,14.85
2016-07-04T04:14:11.947Z,14.86
2016-07-04T04:15:11.935Z,14.89
2016-07-04T04:16:11.902Z,14.85
2016-07-04T04:17:11.883Z,14.86
2016-07-04T04:18:11.865Z,14.91
2016-07-04T04:19:11.842Z,14.96
2016-07-04T04:20:11.822Z,14.92
2016-07-04T04:21:11.848Z,14.85
2016-07-04T04:22:11.784Z,14.94
2016-07-04T04:23:11.751Z,14.97
2016-07-04T04:24:11.732Z,15.04
2016-07-04T04:25:11.718Z,15.06
2016-07-04T04:26:11.686Z,15.14
2016-07-04T04:27:12.269Z,15.14
2016-07-04T04:28:11.648Z,15.11
2016-07-04T04:29:11.621Z,15.22
2016-07-04T04:30:11.604Z,15.24
2016-07-04T04:31:11.576Z,15.24
2016-07-04T04:32:11.556Z,15.31
2016-07-04T04:33:11.537Z,15.35
2016-07-04T04:34:11.515Z,15.35
2016-07-04T04:35:11.496Z,15.44
2016-07-04T04:36:11.478Z,15.46
2016-07-04T04:37:11.457Z,15.46
2016-07-04T04:38:12.036Z,15.42
2016-07-04T04:39:11.408Z,15.61
2016-07-04T04:40:11.387Z,15.61
2016-07-04T04:41:11.368Z,15.65
2016-07-04T04:42:11.351Z,15.65
2016-07-04T04:43:11.324Z,15.68
2016-07-04T04:44:11.300Z,15.77
2016-07-04T04:45:11.280Z,15.77
2016-07-04T04:46:11.259Z,15.79
2016-07-04T04:47:11.840Z,15.72
2016-07-04T04:48:11.224Z,15.79
2016-07-04T04:49:11.199Z,15.8
2016-07-04T04:50:11.182Z,15.88
2016-07-04T04:51:11.155Z,15.88
2016-07-04T04:52:11.138Z,16
2016-07-04T04:53:11.116Z,15.95
2016-07-04T04:54:11.102Z,15.98
2016-07-04T04:55:11.080Z,16.01
2016-07-04T04:56:11.053Z,16.05
2016-07-04T04:57:11.035Z,16.08
2016-07-04T04:58:11.011Z,16.08
2016-07-04T04:59:11.590Z,16.13
2016-07-04T05:00:10.973Z,16.16
2016-07-04T05:01:10.957Z,16.26
2016-07-04T05:02:10.931Z,16.33
2016-07-04T05:03:10.908Z,16.36
2016-07-04T05:04:10.887Z,16.32
2016-07-04T05:05:10.865Z,16.24
2016-07-04T05:06:10.845Z,16.41
2016-07-04T05:07:10.824Z,16.38
2016-07-04T05:08:10.804Z,16.32
2016-07-04T05:09:10.789Z,16.36
2016-07-04T05:10:11.365Z,16.39
2016-07-04T05:11:10.746Z,16.42
2016-07-04T05:12:10.727Z,16.47
2016-07-04T05:13:10.706Z,16.51
2016-07-04T05:14:10.681Z,16.51
2016-07-04T05:15:10.666Z,16.51
2016-07-04T05:16:10.642Z,16.54
2016-07-04T05:17:10.645Z,16.54
2016-07-04T05:18:10.605Z,16.57
2016-07-04T05:19:10.582Z,16.64
2016-07-04T05:20:10.564Z,16.65
2016-07-04T05:21:10.548Z,16.65
2016-07-04T05:22:10.525Z,16.69
2016-07-04T05:23:10.499Z,16.69
2016-07-04T05:24:10.486Z,16.83
2016-07-04T05:25:10.463Z,16.89
2016-07-04T05:26:10.437Z,16.93
2016-07-04T05:27:10.427Z,17.01
2016-07-04T05:28:10.401Z,17.06
2016-07-04T05:29:10.380Z,17.04
2016-07-04T05:30:10.357Z,17.12
2016-07-04T05:31:10.341Z,17.15
2016-07-04T05:32:10.317Z,17.34
2016-07-04T05:33:10.297Z,17.44
2016-07-04T05:34:10.281Z,17.63
2016-07-04T05:35:10.874Z,17.78
2016-07-04T05:36:10.299Z,17.82
2016-07-04T05:37:11.025Z,17.83
2016-07-04T05:38:10.738Z,17.97
2016-07-04T05:39:11.434Z,18.04
2016-07-04T05:40:10.363Z,18.19
2016-07-04T05:41:10.167Z,18.25
2016-07-04T05:42:10.338Z,18.37
2016-07-04T05:43:10.116Z,18.58
2016-07-04T05:44:10.096Z,18.63
2016-07-04T05:45:10.108Z,18.73
2016-07-04T05:46:10.067Z,18.78
2016-07-04T05:47:10.634Z,18.99
2016-07-04T05:48:10.024Z,19.12
2016-07-04T05:49:10.705Z,19.24
2016-07-04T05:50:10.001Z,19.21
2016-07-04T05:51:09.991Z,19.29
2016-07-04T05:52:09.960Z,19.4
2016-07-04T05:53:09.979Z,19.4
2016-07-04T05:54:09.929Z,19.41
2016-07-04T05:55:09.911Z,19.45
2016-07-04T05:56:09.897Z,19.47
2016-07-04T05:57:09.879Z,19.54
2016-07-04T05:58:09.871Z,19.55
2016-07-04T05:59:09.850Z,19.51
2016-07-04T06:00:10.007Z,19.73
2016-07-04T06:01:09.816Z,19.79
2016-07-04T06:02:09.797Z,19.81
2016-07-04T06:03:09.777Z,19.77
2016-07-04T06:04:09.771Z,19.82
2016-07-04T06:05:09.772Z,19.88
2016-07-04T06:06:09.742Z,19.85
2016-07-04T06:07:09.720Z,19.95
2016-07-04T06:08:09.695Z,19.95
2016-07-04T06:09:09.723Z,19.95
2016-07-04T06:10:09.669Z,20.04
2016-07-04T06:11:09.651Z,20.03
2016-07-04T06:12:09.632Z,20.11
2016-07-04T06:13:09.613Z,20.22
2016-07-04T06:14:09.602Z,20.28
2016-07-04T06:15:09.591Z,20.34
2016-07-04T06:16:09.568Z,20.51
2016-07-04T06:17:09.549Z,20.56
2016-07-04T06:18:10.136Z,20.59
2016-07-04T06:19:09.516Z,20.67
2016-07-04T06:20:09.509Z,20.65
2016-07-04T06:21:09.492Z,20.62
2016-07-04T06:22:10.133Z,20.75
2016-07-04T06:23:09.469Z,20.74
2016-07-04T06:24:09.451Z,20.8
2016-07-04T06:25:09.434Z,20.84
2016-07-04T06:26:09.417Z,20.92
2016-07-04T06:27:09.400Z,20.95
2016-07-04T06:28:09.410Z,21.05
2016-07-04T06:29:09.404Z,21.17
2016-07-04T06:30:09.363Z,21.3
2016-07-04T06:31:09.348Z,21.29
2016-07-04T06:32:09.361Z,21.3
2016-07-04T06:33:09.313Z,21.36
2016-07-04T06:34:09.299Z,21.43
2016-07-04T06:35:09.531Z,21.51
2016-07-04T06:36:09.271Z,21.5
2016-07-04T06:37:09.261Z,21.64
2016-07-04T06:38:09.248Z,21.62
2016-07-04T06:39:09.232Z,21.66
2016-07-04T06:40:09.222Z,21.57
2016-07-04T06:41:09.210Z,21.55
2016-07-04T06:42:09.196Z,21.54
2016-07-04T06:43:09.185Z,21.57
2016-07-04T06:44:09.162Z,21.45
2016-07-04T06:45:09.152Z,21.61
2016-07-04T06:46:09.139Z,21.52
2016-07-04T06:47:09.122Z,21.57
2016-07-04T06:48:09.116Z,21.66
2016-07-04T06:49:09.097Z,21.73
2016-07-04T06:50:09.109Z,21.79
2016-07-04T06:51:09.109Z,21.92
2016-07-04T06:52:09.064Z,21.92
2016-07-04T06:53:09.157Z,22.1
2016-07-04T06:54:09.037Z,22.02
2016-07-04T06:55:09.049Z,22.11
2016-07-04T06:56:09.613Z,22.26
2016-07-04T06:57:09.067Z,22.41
2016-07-04T06:58:08.995Z,22.53
2016-07-04T06:59:08.988Z,22.69
2016-07-04T07:00:09.040Z,22.9
2016-07-04T07:01:08.959Z,22.99
2016-07-04T07:02:08.944Z,22.98
2016-07-04T07:03:08.938Z,23.02
2016-07-04T07:04:08.922Z,23
2016-07-04T07:05:08.913Z,23.02
2016-07-04T07:06:08.905Z,23.02
2016-07-04T07:07:08.897Z,23.18
2016-07-04T07:08:08.879Z,23.12
2016-07-04T07:09:08.891Z,23.13
2016-07-04T07:10:08.868Z,23.15
2016-07-04T07:11:09.494Z,23.36
2016-07-04T07:12:08.833Z,23.4
2016-07-04T07:13:08.832Z,23.39
2016-07-04T07:14:08.956Z,23.44
2016-07-04T07:15:08.846Z,23.44
2016-07-04T07:16:08.799Z,23.48
2016-07-04T07:17:08.796Z,23.55
2016-07-04T07:18:08.931Z,23.59
2016-07-04T07:19:08.768Z,23.59
2016-07-04T07:20:08.759Z,23.56
2016-07-04T07:21:08.766Z,23.63
2016-07-04T07:22:09.127Z,23.63
2016-07-04T07:23:08.733Z,23.68
2016-07-04T07:24:09.323Z,23.74
2016-07-04T07:25:08.712Z,23.77
2016-07-04T07:26:09.300Z,23.78
2016-07-04T07:27:08.702Z,23.78
2016-07-04T07:28:09.404Z,23.88
2016-07-04T07:29:08.674Z,23.93
2016-07-04T07:30:08.662Z,23.91
2016-07-04T07:31:08.650Z,23.96
2016-07-04T07:32:08.642Z,23.91
2016-07-04T07:33:08.648Z,23.96
2016-07-04T07:34:08.635Z,24.01
2016-07-04T07:35:08.617Z,24.2
2016-07-04T07:36:08.620Z,24.38
2016-07-04T07:37:08.599Z,24.47
2016-07-04T07:38:08.587Z,24.63
2016-07-04T07:39:08.586Z,24.65
2016-07-04T07:40:08.602Z,24.7
2016-07-04T07:41:08.553Z,24.78
2016-07-04T07:42:08.601Z,24.86
2016-07-04T07:43:08.538Z,25.03
2016-07-04T07:44:08.677Z,25.13
2016-07-04T07:45:08.517Z,25.21
2016-07-04T07:46:08.516Z,25.4
2016-07-04T07:47:08.505Z,25.51
2016-07-04T07:48:09.100Z,25.66
2016-07-04T07:49:08.504Z,25.69
2016-07-04T07:50:08.495Z,25.75
2016-07-04T07:51:08.477Z,25.8
2016-07-04T07:52:09.067Z,25.7
2016-07-04T07:53:08.468Z,25.58
2016-07-04T07:54:08.454Z,25.66
2016-07-04T07:55:09.072Z,25.73
2016-07-04T07:56:08.459Z,25.8
2016-07-04T07:57:08.459Z,25.72
2016-07-04T07:58:08.429Z,25.88
2016-07-04T07:59:08.415Z,26.07
2016-07-04T08:00:08.412Z,26.22
2016-07-04T08:01:08.407Z,26.44
2016-07-04T08:02:08.395Z,26.6
2016-07-04T08:03:08.389Z,26.88
2016-07-04T08:04:08.378Z,27
2016-07-04T08:05:08.989Z,27.1
2016-07-04T08:06:08.363Z,27.05
2016-07-04T08:07:08.377Z,27.15
2016-07-04T08:08:08.362Z,27.07
2016-07-04T08:09:08.965Z,27.12
2016-07-04T08:10:08.946Z,27.1
2016-07-04T08:11:08.338Z,27.21
2016-07-04T08:12:08.337Z,27.11
2016-07-04T08:13:08.375Z,27.17
2016-07-04T08:14:08.344Z,27.15
2016-07-04T08:15:08.312Z,27.21
2016-07-04T08:16:08.307Z,27.4
2016-07-04T08:17:08.351Z,27.6
2016-07-04T08:18:08.347Z,27.71
2016-07-04T08:19:08.289Z,27.8
2016-07-04T08:20:08.288Z,27.85
2016-07-04T08:21:08.268Z,27.92
2016-07-04T08:22:08.272Z,28.01
2016-07-04T08:23:08.861Z,28
2016-07-04T08:24:08.257Z,28.02
2016-07-04T08:25:08.257Z,27.96
2016-07-04T08:26:08.652Z,28.11
2016-07-04T08:27:08.240Z,28.23
2016-07-04T08:28:08.247Z,28.3
2016-07-04T08:29:08.233Z,28.3
2016-07-04T08:30:08.224Z,28.33
2016-07-04T08:31:08.824Z,28.45
2016-07-04T08:32:09.194Z,28.47
2016-07-04T08:33:09.147Z,28.51
2016-07-04T08:34:09.071Z,28.66
2016-07-04T08:35:09.773Z,28.76
2016-07-04T08:36:09.092Z,28.91
2016-07-04T08:37:09.752Z,29.12
2016-07-04T08:38:08.346Z,29.14
2016-07-04T08:39:08.192Z,29.27
2016-07-04T08:40:08.193Z,29.34
2016-07-04T08:41:08.183Z,29.32
2016-07-04T08:42:08.183Z,29.44
2016-07-04T08:43:09.440Z,29.59
2016-07-04T08:44:08.172Z,29.73
2016-07-04T08:45:08.285Z,29.76
2016-07-04T08:46:12.304Z,29.88
2016-07-04T08:47:12.296Z,30.02
2016-07-04T08:48:12.298Z,29.97
2016-07-04T08:49:44.374Z,30.25
2016-07-04T08:50:44.378Z,30.35
2016-07-04T08:51:44.379Z,30.47
2016-07-04T08:52:48.933Z,30.54
2016-07-04T08:53:44.372Z,30.55
2016-07-04T08:54:19.081Z,30.62
2016-07-04T08:55:36.519Z,30.35
2016-07-04T08:56:34.904Z,30.24
2016-07-04T08:57:16.716Z,30.19
2016-07-04T08:58:12.286Z,30
2016-07-04T08:59:17.936Z,29.82
2016-07-04T09:25:57.950Z,28.15
2016-07-04T09:26:57.957Z,28.22
2016-07-04T09:27:57.947Z,28.38
2016-07-04T09:28:57.948Z,28.6
2016-07-04T09:29:57.939Z,28.49
2016-07-04T09:30:57.932Z,28.57
2016-07-04T09:31:57.942Z,28.52
2016-07-04T09:32:57.921Z,28.42
2016-07-04T09:33:57.912Z,28.44
2016-07-04T09:34:57.908Z,28.39
2016-07-04T09:35:57.895Z,28.45
2016-07-04T09:36:57.903Z,28.45
2016-07-04T09:37:58.496Z,28.54
2016-07-04T09:38:57.885Z,28.52
2016-07-04T09:39:58.487Z,28.62
2016-07-04T09:40:57.888Z,28.63
2016-07-04T09:41:57.887Z,28.66
2016-07-04T09:42:57.870Z,28.64
2016-07-04T09:43:57.869Z,28.62
2016-07-04T09:44:57.882Z,28.78
2016-07-04T09:45:57.872Z,29.14
2016-07-04T09:46:57.863Z,29.32
2016-07-04T09:47:57.851Z,29.27
2016-07-04T09:48:57.846Z,29.2
2016-07-04T09:49:57.856Z,28.98
2016-07-04T09:50:57.862Z,28.79
2016-07-04T09:51:57.848Z,28.59
2016-07-04T09:52:57.838Z,28.59
2016-07-04T09:53:57.832Z,28.49
2016-07-04T09:54:57.841Z,28.42
2016-07-04T09:55:57.839Z,28.29
2016-07-04T09:56:57.845Z,28.19
2016-07-04T09:57:57.817Z,28.14
2016-07-04T09:58:57.829Z,28.17
2016-07-04T09:59:57.803Z,28.14
2016-07-04T10:00:57.799Z,28.04
2016-07-04T10:01:57.799Z,28.02
2016-07-04T10:02:58.387Z,28.01
2016-07-04T10:03:57.782Z,28
2016-07-04T10:04:57.770Z,28.02
2016-07-04T10:05:57.764Z,28.14
2016-07-04T10:06:57.760Z,28.37
2016-07-04T10:07:57.756Z,28.38
2016-07-04T10:08:57.750Z,28.41
2016-07-04T10:09:57.759Z,28.56
2016-07-04T10:10:57.733Z,28.45
2016-07-04T10:11:57.733Z,28.49
2016-07-04T10:12:57.731Z,28.33
2016-07-04T10:13:57.720Z,28.02
2016-07-04T10:14:57.712Z,27.71
2016-07-04T10:15:57.707Z,27.63
2016-07-04T10:16:57.701Z,27.51
2016-07-04T10:17:57.682Z,27.39
2016-07-04T10:18:57.690Z,27.33
2016-07-04T10:19:57.678Z,27.33
2016-07-04T10:20:57.656Z,27.45
2016-07-04T10:21:57.664Z,27.32
2016-07-04T10:22:57.645Z,27.4
2016-07-04T10:23:57.644Z,27.37
2016-07-04T10:24:57.632Z,27.39
2016-07-04T10:25:57.628Z,27.54
2016-07-04T10:26:57.620Z,27.48
2016-07-04T10:27:57.609Z,27.7
2016-07-04T10:28:57.609Z,27.87
2016-07-04T10:29:57.596Z,28.04
2016-07-04T10:30:57.589Z,28.22
2016-07-04T10:31:57.584Z,28.23
2016-07-04T10:32:57.573Z,28.05
2016-07-04T10:33:57.568Z,27.89
2016-07-04T10:34:57.569Z,27.67
2016-07-04T10:35:57.559Z,27.54
2016-07-04T10:36:57.546Z,27.29
2016-07-04T10:37:57.537Z,27.37
2016-07-04T10:38:57.540Z,27.52
2016-07-04T10:39:57.511Z,27.4
2016-07-04T10:40:57.524Z,27.54
2016-07-04T10:41:57.521Z,27.7
2016-07-04T10:42:57.501Z,27.98
2016-07-04T10:43:57.498Z,28.15
2016-07-04T10:44:57.491Z,28.3
2016-07-04T10:45:57.485Z,28.45
2016-07-04T10:46:57.480Z,28.63
2016-07-04T10:47:57.478Z,28.72
2016-07-04T10:48:57.470Z,28.76
2016-07-04T10:49:57.471Z,28.76
2016-07-04T10:50:57.468Z,28.88
2016-07-04T10:51:57.458Z,28.91
2016-07-04T10:52:57.454Z,29.07
2016-07-04T10:53:57.452Z,29.1
2016-07-04T10:54:57.447Z,29.12
2016-07-04T10:55:57.438Z,29.17
2016-07-04T10:56:57.438Z,29.27
2016-07-04T10:57:57.438Z,29.65
2016-07-04T10:58:57.437Z,29.86
2016-07-04T10:59:57.430Z,30.02
2016-07-04T11:00:57.419Z,30.24
2016-07-04T11:01:57.423Z,30.23
2016-07-04T11:02:57.426Z,30.09
2016-07-04T11:03:57.417Z,29.98
2016-07-04T11:04:57.420Z,29.88
2016-07-04T11:05:57.414Z,29.79
2016-07-04T11:06:57.414Z,29.6
2016-07-04T11:07:57.397Z,29.51
2016-07-04T11:08:57.400Z,29.51
2016-07-04T11:09:57.436Z,29.49
2016-07-04T11:10:57.392Z,29.41
2016-07-04T11:11:57.385Z,29.44
2016-07-04T11:12:57.389Z,29.49
2016-07-04T11:13:57.377Z,29.49
2016-07-04T11:14:57.371Z,29.49
2016-07-04T11:15:57.370Z,29.51
2016-07-04T11:16:57.365Z,29.41
2016-07-04T11:17:57.357Z,29.34
2016-07-04T11:18:57.346Z,29.29
2016-07-04T11:19:57.343Z,29.12
2016-07-04T11:20:57.338Z,29.04
2016-07-04T11:21:57.324Z,28.69
2016-07-04T11:22:57.311Z,28.47
2016-07-04T11:23:57.310Z,28.38
2016-07-04T11:24:57.305Z,28.27
2016-07-04T11:25:57.293Z,28.19
2016-07-04T11:26:57.284Z,28
2016-07-04T11:27:57.276Z,27.95
2016-07-04T11:28:57.280Z,28
2016-07-04T11:29:57.264Z,27.98
2016-07-04T11:30:57.266Z,28.01
2016-07-04T11:31:57.256Z,28.1
2016-07-04T11:32:57.245Z,28.1
2016-07-04T11:33:57.229Z,28.25
2016-07-04T11:34:57.227Z,28.32
2016-07-04T11:35:57.214Z,28.38
2016-07-04T11:36:57.218Z,28.35
2016-07-04T11:37:57.197Z,28.35
2016-07-04T11:38:57.196Z,28.49
2016-07-04T11:39:57.190Z,28.39
2016-07-04T11:40:57.182Z,28.32
2016-07-04T11:41:57.177Z,28.48
2016-07-04T11:42:57.166Z,28.29
2016-07-04T11:43:57.163Z,28.26
2016-07-04T11:44:57.138Z,28.35
2016-07-04T11:45:57.143Z,28.44
2016-07-04T11:46:57.128Z,28.45
2016-07-04T11:47:57.126Z,28.56
2016-07-04T11:48:57.114Z,28.56
2016-07-04T11:49:57.115Z,28.56
2016-07-04T11:50:57.096Z,28.48
2016-07-04T11:51:57.090Z,28.48
2016-07-04T11:52:57.090Z,28.38
2016-07-04T11:53:57.083Z,28.45
2016-07-04T11:54:57.078Z,28.3
2016-07-04T11:55:57.074Z,28.26
2016-07-04T11:56:57.051Z,28.17
2016-07-04T11:57:57.043Z,28.3
2016-07-04T11:58:57.046Z,28.25
2016-07-04T11:59:57.030Z,28.25
2016-07-04T12:00:57.026Z,28.25
2016-07-04T12:01:57.021Z,28.35
2016-07-04T12:02:57.018Z,28.47
2016-07-04T12:03:57.658Z,28.48
2016-07-04T12:04:56.993Z,28.54
2016-07-04T12:05:56.982Z,28.62
2016-07-04T12:06:56.981Z,28.54
2016-07-04T12:07:56.975Z,28.52
2016-07-04T12:08:56.961Z,28.49
2016-07-04T12:09:56.958Z,28.48
2016-07-04T12:10:56.950Z,28.54
2016-07-04T12:11:56.949Z,28.69
2016-07-04T12:12:56.944Z,28.69
2016-07-04T12:13:56.929Z,28.69
2016-07-04T12:14:56.926Z,28.66
2016-07-04T12:15:56.917Z,28.62
2016-07-04T12:16:56.900Z,28.6
2016-07-04T12:17:56.896Z,28.51
2016-07-04T12:18:56.890Z,28.47
2016-07-04T12:19:56.863Z,28.59
2016-07-04T12:20:56.867Z,28.51
2016-07-04T12:21:56.864Z,28.66
2016-07-04T12:22:56.865Z,28.64
2016-07-04T12:23:56.853Z,28.75
2016-07-04T12:24:56.852Z,28.96
2016-07-04T12:25:56.844Z,28.97
2016-07-04T12:26:56.840Z,29.08
2016-07-04T12:27:56.831Z,29.01
2016-07-04T12:28:56.823Z,28.72
2016-07-04T12:29:56.817Z,28.48
2016-07-04T12:30:56.815Z,28.44
2016-07-04T12:31:56.801Z,28.54
2016-07-04T12:32:56.796Z,28.64
2016-07-04T12:33:56.802Z,28.76
2016-07-04T12:34:57.387Z,29.05
2016-07-04T12:35:56.770Z,29.23
2016-07-04T12:36:56.770Z,29.31
2016-07-04T12:37:56.766Z,29.38
2016-07-04T12:38:56.759Z,29.26
2016-07-04T12:39:56.759Z,29.32
2016-07-04T12:40:56.907Z,29.44
2016-07-04T12:41:56.741Z,29.69
2016-07-04T12:42:56.736Z,29.9
2016-07-04T12:43:56.737Z,29.98
2016-07-04T12:44:56.725Z,29.95
2016-07-04T12:45:56.723Z,29.95
2016-07-04T12:46:56.715Z,30.02
2016-07-04T12:47:56.712Z,30.13
2016-07-04T12:48:56.712Z,30.12
2016-07-04T12:49:56.703Z,30.27
2016-07-04T12:50:56.702Z,30.55
2016-07-04T12:51:56.691Z,30.72
2016-07-04T12:52:56.694Z,30.65
2016-07-04T12:53:56.691Z,30.72
2016-07-04T12:54:56.686Z,30.91
2016-07-04T12:55:56.684Z,31.09
2016-07-04T12:56:56.677Z,31.34
2016-07-04T12:57:56.677Z,31.52
2016-07-04T12:58:56.677Z,31.62
2016-07-04T12:59:56.673Z,31.76
2016-07-04T13:00:56.669Z,31.81
2016-07-04T13:01:56.670Z,31.81
2016-07-04T13:02:56.664Z,31.76
2016-07-04T13:03:56.664Z,31.73
2016-07-04T13:04:57.255Z,31.64
2016-07-04T13:05:56.651Z,31.43
2016-07-04T13:06:57.735Z,31.22
2016-07-04T13:07:56.643Z,31.06
2016-07-04T13:08:56.645Z,30.97
2016-07-04T13:09:56.641Z,30.88
2016-07-04T13:10:56.635Z,30.97
2016-07-04T13:11:56.622Z,30.96
2016-07-04T13:12:56.627Z,31.02
2016-07-04T13:13:56.617Z,31.06
2016-07-04T13:14:56.608Z,31.14
2016-07-04T13:15:56.602Z,31.2
2016-07-04T13:16:56.601Z,31.28
2016-07-04T13:17:56.595Z,31.24
2016-07-04T13:18:56.584Z,31.17
2016-07-04T13:19:56.577Z,31.1
2016-07-04T13:20:56.588Z,31.09
2016-07-04T13:21:56.573Z,30.88